Time;durP1;ratioP1;P1;durP2;ratioP2;P2;SDS_P1;SDS_P2;PMS_P1;PMS_P2;Temp;Humidity;BMP_temperature;BMP_pressure;BME280_temperature;BME280_humidity;BME280_pressure;Samples;Min_cycle;Max_cycle;Signal;HPM_P1;HPM_P2
2021/01/09 00:03:47;;;;;;;12.83;7.33;;;;;;;3.19;81.18;100815.97;8657677;33;20252;-72
2021/01/09 00:08:49;;;;;;;18.27;7.80;;;;;;;3.17;81.21;100822.22;8658249;33;20180;-71
2021/01/09 00:13:51;;;;;;;16.03;7.93;;;;;;;3.20;81.38;100816.84;8657767;33;20237;-71
2021/01/09 00:18:55;;;;;;;15.20;7.20;;;;;;;3.20;81.53;100815.06;8657884;33;20145;-71
2021/01/09 00:23:57;;;;;;;13.13;7.10;;;;;;;3.21;81.52;100823.84;8633291;33;20927;-71
2021/01/09 00:28:59;;;;;;;16.73;8.07;;;;;;;3.29;81.40;100821.84;8657807;33;20296;-72
2021/01/09 00:34:03;;;;;;;12.37;7.30;;;;;;;3.30;81.31;100823.59;8656823;33;20188;-71
2021/01/09 00:39:06;;;;;;;17.57;8.10;;;;;;;3.36;80.99;100826.03;8656361;33;20705;-72
2021/01/09 00:44:08;;;;;;;15.73;8.27;;;;;;;3.37;81.34;100842.75;8657773;33;20156;-70
2021/01/09 00:49:11;;;;;;;15.67;8.03;;;;;;;3.32;81.23;100840.25;8655975;33;20191;-71
2021/01/09 00:54:14;;;;;;;17.55;7.60;;;;;;;3.28;81.31;100844.75;8657060;33;20551;-71
2021/01/09 00:59:16;;;;;;;18.53;7.83;;;;;;;3.36;81.20;100847.16;8656204;33;20928;-71
2021/01/09 01:04:20;;;;;;;14.67;8.23;;;;;;;3.21;80.81;100852.88;8658723;33;20242;-71
2021/01/09 01:09:23;;;;;;;20.37;7.97;;;;;;;3.25;81.00;100857.19;8661643;33;20701;-71
2021/01/09 01:14:25;;;;;;;16.60;7.87;;;;;;;3.28;81.25;100867.66;8661445;33;20180;-70
2021/01/09 01:19:28;;;;;;;14.33;7.43;;;;;;;3.25;80.92;100875.69;8660594;33;20276;-71
2021/01/09 01:24:30;;;;;;;18.70;8.50;;;;;;;3.27;80.56;100869.44;8661284;33;20192;-71
2021/01/09 01:29:33;;;;;;;14.87;7.43;;;;;;;3.36;80.75;100875.38;8660435;33;20184;-71
2021/01/09 01:34:36;;;;;;;18.30;7.47;;;;;;;3.39;80.85;100877.91;8661062;33;21459;-71
2021/01/09 01:39:39;;;;;;;15.47;7.87;;;;;;;3.39;81.10;100883.19;8636467;33;20677;-71
2021/01/09 01:44:41;;;;;;;17.10;7.90;;;;;;;3.22;79.83;100897.75;8660941;33;20764;-71
2021/01/09 01:49:45;;;;;;;17.40;7.67;;;;;;;3.29;80.70;100901.97;8660579;33;20216;-71
2021/01/09 01:54:49;;;;;;;13.77;7.13;;;;;;;3.37;80.80;100898.22;8660304;33;20250;-71
2021/01/09 01:59:52;;;;;;;16.20;6.80;;;;;;;3.41;81.00;100897.22;8659833;33;20141;-71
2021/01/09 02:05:01;;;;;;;17.27;7.57;;;;;;;3.41;81.07;100897.22;8660486;33;21837;-71
2021/01/09 02:10:06;;;;;;;15.77;7.40;;;;;;;3.44;81.13;100907.72;8660164;33;20184;-71
2021/01/09 02:15:11;;;;;;;17.33;8.43;;;;;;;3.44;80.86;100915.63;8635183;33;20223;-71
2021/01/09 02:20:16;;;;;;;16.80;7.10;;;;;;;3.37;80.68;100912.28;8659512;33;21639;-71
2021/01/09 02:25:19;;;;;;;16.07;7.20;;;;;;;3.31;80.89;100921.25;8660170;33;20152;-71
2021/01/09 02:30:26;;;;;;;14.03;6.83;;;;;;;3.36;80.89;100925.56;8659419;33;22329;-70
2021/01/09 02:35:32;;;;;;;16.17;7.67;;;;;;;3.43;81.16;100927.97;8659577;33;20187;-71
2021/01/09 02:40:41;;;;;;;13.33;6.23;;;;;;;3.42;81.16;100928.00;8658905;33;20657;-71
2021/01/09 02:45:44;;;;;;;13.47;6.67;;;;;;;3.41;81.20;100927.16;8659854;33;20463;-70
2021/01/09 02:50:46;;;;;;;16.93;6.40;;;;;;;3.42;81.31;100926.22;8659092;33;20646;-71
2021/01/09 02:55:50;;;;;;;14.27;7.03;;;;;;;3.37;80.93;100927.28;8648313;33;20149;-71
2021/01/09 03:00:52;;;;;;;15.27;7.13;;;;;;;3.34;80.91;100923.78;8658757;33;20709;-70
2021/01/09 03:05:55;;;;;;;14.07;7.13;;;;;;;3.36;81.20;100930.84;8659236;33;20137;-70
2021/01/09 03:10:58;;;;;;;17.43;7.03;;;;;;;3.27;81.12;100939.88;8659067;33;20830;-70
2021/01/09 03:16:00;;;;;;;13.47;7.37;;;;;;;3.18;80.80;100942.75;8658612;33;20152;-71
2021/01/09 03:21:05;;;;;;;14.30;6.50;;;;;;;3.00;80.12;100950.28;8658103;33;20207;-71
2021/01/09 03:26:08;;;;;;;15.50;6.87;;;;;;;2.88;80.29;100953.25;8658417;33;20596;-70
2021/01/09 03:31:10;;;;;;;14.67;6.73;;;;;;;2.95;80.75;100951.31;8657551;33;20390;-71
2021/01/09 03:36:13;;;;;;;15.57;6.97;;;;;;;2.88;80.23;100954.13;8657771;33;20531;-71
2021/01/09 03:41:16;;;;;;;11.10;5.90;;;;;;;2.95;80.82;100954.81;8657559;33;20203;-70
2021/01/09 03:46:18;;;;;;;11.67;6.47;;;;;;;2.95;81.19;100957.44;8657679;33;22010;-71
2021/01/09 03:51:21;;;;;;;15.57;6.77;;;;;;;2.99;80.81;100958.22;8658051;33;20187;-71
2021/01/09 03:56:24;;;;;;;15.23;6.63;;;;;;;2.94;80.36;100968.06;8656996;33;20279;-71
2021/01/09 04:01:27;;;;;;;14.63;7.10;;;;;;;2.79;79.67;100958.75;8656975;33;20616;-71
2021/01/09 04:06:30;;;;;;;13.40;7.27;;;;;;;2.70;79.58;100959.84;8657838;33;20430;-70
2021/01/09 04:11:33;;;;;;;12.57;6.93;;;;;;;2.63;79.34;100951.25;8656474;33;20149;-71
2021/01/09 04:16:36;;;;;;;12.90;6.07;;;;;;;2.78;79.74;100955.25;8656925;33;20175;-70
2021/01/09 04:21:44;;;;;;;16.13;8.03;;;;;;;2.82;79.68;100963.94;8656271;33;20160;-71
2021/01/09 04:26:52;;;;;;;14.20;6.17;;;;;;;2.85;79.59;100967.41;8656766;33;20144;-70
2021/01/09 04:31:56;;;;;;;16.27;7.17;;;;;;;2.89;79.55;100965.53;8656560;33;20578;-71
2021/01/09 04:36:58;;;;;;;15.83;7.60;;;;;;;2.80;79.65;100961.38;8656423;33;21017;-71
2021/01/09 04:42:01;;;;;;;16.87;7.67;;;;;;;2.91;80.23;100961.09;8656227;33;20239;-71
2021/01/09 04:47:05;;;;;;;11.60;6.93;;;;;;;3.02;80.47;100968.72;8656128;33;20390;-71
2021/01/09 04:52:10;;;;;;;16.33;7.53;;;;;;;2.90;80.19;100972.53;8656214;33;20454;-70
2021/01/09 04:57:13;;;;;;;12.43;6.80;;;;;;;3.02;79.64;100971.38;8656186;33;20223;-71
2021/01/09 05:02:17;;;;;;;14.27;7.00;;;;;;;2.85;79.22;100977.06;8655595;33;20291;-71
2021/01/09 05:07:20;;;;;;;12.83;6.43;;;;;;;2.87;79.57;100978.75;8656115;33;20180;-69
2021/01/09 05:12:23;;;;;;;12.97;5.90;;;;;;;2.90;79.14;100986.59;8656285;33;20254;-71
2021/01/09 05:17:26;;;;;;;11.67;6.03;;;;;;;2.87;79.40;100984.03;8655612;33;20757;-71
2021/01/09 05:22:29;;;;;;;12.80;6.47;;;;;;;2.89;79.11;100994.56;8655155;33;20335;-70
2021/01/09 05:27:34;;;;;;;13.70;6.43;;;;;;;2.94;79.50;100997.97;8655494;33;20626;-70
2021/01/09 05:32:36;;;;;;;15.00;6.83;;;;;;;2.90;79.23;100996.28;8655593;33;20193;-70
2021/01/09 05:37:39;;;;;;;15.37;6.37;;;;;;;3.01;79.55;100996.88;8655491;33;20497;-70
2021/01/09 05:42:43;;;;;;;10.97;6.17;;;;;;;2.97;79.49;101003.16;8630759;33;20258;-70
2021/01/09 05:47:46;;;;;;;11.50;6.13;;;;;;;2.97;79.53;101000.53;8655581;33;20248;-70
2021/01/09 05:52:48;;;;;;;11.00;5.83;;;;;;;2.99;79.85;101003.09;8657422;33;20695;-70
2021/01/09 05:57:52;;;;;;;14.90;5.97;;;;;;;3.00;80.14;101007.50;8659734;33;20354;-71
2021/01/09 06:03:06;;;;;;;11.70;6.40;;;;;;;3.04;79.50;101012.63;8660184;33;20185;-70
2021/01/09 06:08:10;;;;;;;11.03;5.93;;;;;;;3.02;80.42;101013.63;8636028;33;20696;-71
2021/01/09 06:13:14;;;;;;;14.07;6.47;;;;;;;3.04;79.97;101017.91;8659952;33;20499;-70
2021/01/09 06:18:20;;;;;;;14.30;6.27;;;;;;;3.06;80.53;101026.69;8660062;33;20312;-70
2021/01/09 06:23:25;;;;;;;17.57;6.80;;;;;;;3.19;80.88;101027.22;8668246;33;20600;-71
2021/01/09 06:28:37;;;;;;;15.00;7.23;;;;;;;3.28;80.98;101024.34;8660280;33;20427;-71
2021/01/09 06:33:41;;;;;;;13.47;6.33;;;;;;;3.32;80.96;101031.28;8659117;33;21656;-71
2021/01/09 06:38:47;;;;;;;12.97;6.43;;;;;;;3.12;80.40;101038.84;8658982;33;20235;-71
2021/01/09 06:43:54;;;;;;;13.10;5.90;;;;;;;3.04;80.52;101039.03;8659274;33;20202;-71
2021/01/09 06:48:57;;;;;;;11.20;5.60;;;;;;;3.05;80.75;101043.44;8658740;33;20422;-71
2021/01/09 06:54:29;;;;;;;15.00;6.43;;;;;;;3.11;80.50;101045.06;8659175;33;20169;-71
2021/01/09 06:59:34;;;;;;;17.10;6.50;;;;;;;2.95;79.58;101055.13;8657534;33;20713;-70
2021/01/09 07:05:01;;;;;;;12.07;5.57;;;;;;;3.06;80.54;101058.34;8659012;33;20200;-71
2021/01/09 07:10:22;;;;;;;14.33;6.70;;;;;;;3.10;80.67;101069.72;8650079;33;20510;-70
2021/01/09 07:15:27;;;;;;;13.37;6.67;;;;;;;3.06;80.40;101073.34;8657959;33;20773;-71
2021/01/09 07:20:36;;;;;;;11.50;6.57;;;;;;;3.10;80.38;101072.38;8657680;33;20691;-71
2021/01/09 07:25:40;;;;;;;12.37;5.80;;;;;;;3.12;80.55;101075.81;8634267;33;20185;-70
2021/01/09 07:30:44;;;;;;;13.60;6.70;;;;;;;3.15;80.57;101081.00;8658192;33;20577;-70
2021/01/09 07:35:48;;;;;;;12.23;6.87;;;;;;;3.11;80.21;101085.50;8658304;33;20251;-71
2021/01/09 07:40:56;;;;;;;10.07;5.40;;;;;;;3.13;80.27;101093.41;8657621;33;20249;-69
2021/01/09 07:46:01;;;;;;;16.83;7.73;;;;;;;3.34;80.77;101095.50;8657462;33;20251;-70
2021/01/09 07:51:04;;;;;;;12.47;6.70;;;;;;;3.28;79.96;101095.66;8657767;33;20996;-70
2021/01/09 07:56:06;;;;;;;15.03;6.80;;;;;;;3.38;80.24;101098.94;8657638;33;21963;-70
2021/01/09 08:01:09;;;;;;;17.93;7.83;;;;;;;3.61;80.43;101110.69;8657129;33;20187;-71
2021/01/09 08:06:12;;;;;;;14.95;8.07;;;;;;;3.82;79.33;101112.75;8657419;33;20243;-69
2021/01/09 08:11:14;;;;;;;14.35;7.05;;;;;;;3.56;78.88;101119.59;8657525;33;20210;-70
2021/01/09 08:16:25;;;;;;;10.57;5.87;;;;;;;3.48;79.44;101123.31;8656854;33;20696;-70
2021/01/09 08:21:28;;;;;;;12.17;6.63;;;;;;;3.32;78.83;101128.16;8652584;33;21909;-69
2021/01/09 08:26:33;;;;;;;17.60;7.17;;;;;;;3.18;79.01;101138.16;8656913;33;20290;-70
2021/01/09 08:31:41;;;;;;;15.33;7.13;;;;;;;3.26;79.20;101134.47;8656363;33;20191;-70
2021/01/09 08:36:44;;;;;;;14.17;6.50;;;;;;;3.26;79.59;101144.13;8656550;33;20280;-69
2021/01/09 08:41:46;;;;;;;18.77;6.47;;;;;;;3.26;79.21;101149.41;8655982;33;20670;-68
2021/01/09 08:46:51;;;;;;;19.83;8.23;;;;;;;3.32;79.65;101160.72;8645409;33;20760;-69
2021/01/09 08:52:03;;;;;;;18.97;9.17;;;;;;;3.34;79.17;101155.38;8656595;33;20569;-70
2021/01/09 08:57:06;;;;;;;18.80;8.67;;;;;;;3.43;79.11;101165.75;8656550;33;20708;-69
2021/01/09 09:02:12;;;;;;;20.65;9.70;;;;;;;3.39;78.89;101166.69;8656515;33;20411;-69
2021/01/09 09:07:20;;;;;;;23.30;9.07;;;;;;;3.46;78.58;101181.50;8656127;33;20570;-70
2021/01/09 09:12:24;;;;;;;14.93;8.03;;;;;;;3.50;78.30;101169.09;8654975;33;20192;-70
2021/01/09 09:17:27;;;;;;;21.33;9.40;;;;;;;3.88;78.99;101177.81;8706560;33;20318;-69
2021/01/09 09:22:30;;;;;;;18.90;10.27;;;;;;;3.92;78.86;101188.28;8712516;33;21156;-70
2021/01/09 09:27:33;;;;;;;19.57;9.20;;;;;;;3.73;78.33;101182.59;8715428;33;20128;-69
2021/01/09 09:32:38;;;;;;;18.30;9.23;;;;;;;3.84;78.62;101184.06;8716790;33;20789;-71
2021/01/09 09:37:46;;;;;;;18.73;9.43;;;;;;;4.41;76.94;101186.03;8717385;33;20183;-71
2021/01/09 09:42:48;;;;;;;23.27;10.48;;;;;;;5.81;75.81;101182.50;8665776;33;20235;-69
2021/01/09 09:47:51;;;;;;;19.52;9.77;;;;;;;6.41;72.44;101181.28;8633410;33;20693;-70
2021/01/09 09:52:57;;;;;;;18.58;8.80;;;;;;;5.87;71.21;101184.09;8658208;33;20813;-69
2021/01/09 09:58:09;;;;;;;16.25;8.57;;;;;;;5.84;74.56;101195.69;8658801;33;20219;-70
2021/01/09 10:03:13;;;;;;;18.48;8.30;;;;;;;7.35;74.54;101177.69;8651493;33;20864;-70
2021/01/09 10:08:16;;;;;;;14.38;6.45;;;;;;;8.12;68.15;101169.09;8658375;33;20185;-70
2021/01/09 10:33:17;;;;;;;9.70;5.93;;;;;;;6.31;73.58;101171.06;8648810;33;20793;-69
2021/01/09 10:38:20;;;;;;;14.70;6.85;;;;;;;6.01;72.92;101171.25;8945538;28;20446;-71
2021/01/09 10:43:22;;;;;;;12.90;6.47;;;;;;;5.40;74.62;101171.50;8963253;32;20160;-70
2021/01/09 10:48:25;;;;;;;9.90;5.30;;;;;;;5.37;75.54;101166.31;8900605;32;20203;-71
2021/01/09 10:53:27;;;;;;;10.93;5.47;;;;;;;5.35;74.02;101160.22;8913950;32;20154;-71
2021/01/09 10:58:30;;;;;;;14.25;6.10;;;;;;;5.58;76.38;101157.66;8955035;32;20186;-70
2021/01/09 11:03:33;;;;;;;12.93;6.40;;;;;;;5.74;74.36;101160.66;8954195;32;20168;-70
2021/01/09 11:08:40;;;;;;;10.77;6.10;;;;;;;5.67;75.14;101156.47;8954596;32;20145;-72
2021/01/09 11:13:43;;;;;;;13.50;6.82;;;;;;;5.65;75.00;101152.13;8945449;32;20227;-73
2021/01/09 11:18:46;;;;;;;14.73;7.28;;;;;;;5.71;75.17;101147.50;8954409;32;20210;-71
2021/01/09 11:23:49;;;;;;;16.30;7.32;;;;;;;5.06;74.25;101146.13;8954198;32;20157;-71
2021/01/09 11:28:51;;;;;;;17.45;6.97;;;;;;;4.98;74.75;101147.28;8928162;32;20377;-71
2021/01/09 11:33:54;;;;;;;14.32;7.50;;;;;;;5.24;76.21;101149.97;8893895;32;20219;-71
2021/01/09 11:38:57;;;;;;;16.00;6.93;;;;;;;5.48;74.42;101136.81;8874845;32;20147;-71
2021/01/09 11:43:59;;;;;;;15.80;7.82;;;;;;;5.70;77.73;101147.53;8847818;33;20147;-71
2021/01/09 11:49:05;;;;;;;14.60;7.55;;;;;;;5.99;76.87;101138.59;8873143;33;20196;-71
2021/01/09 11:54:08;;;;;;;13.33;6.57;;;;;;;5.37;73.68;101139.81;8872892;32;20444;-71
2021/01/09 11:59:10;;;;;;;13.60;7.78;;;;;;;5.37;75.19;101138.94;8873894;33;20178;-71
2021/01/09 12:04:13;;;;;;;14.70;7.35;;;;;;;5.36;75.04;101138.09;8874365;33;20213;-71
2021/01/09 12:09:16;;;;;;;14.48;7.28;;;;;;;5.48;76.82;101145.63;8874457;33;20463;-71
2021/01/09 12:14:18;;;;;;;17.52;7.85;;;;;;;5.45;74.37;101147.50;8873114;33;20626;-71
2021/01/09 12:19:24;;;;;;;17.25;7.47;;;;;;;5.34;76.17;101139.91;8872467;33;20150;-71
2021/01/09 12:24:27;;;;;;;16.02;7.72;;;;;;;4.92;76.42;101142.19;8877176;32;20138;-71
2021/01/09 12:29:29;;;;;;;11.65;6.55;;;;;;;4.50;76.00;101145.19;8887554;32;20244;-71
2021/01/09 12:34:32;;;;;;;12.07;7.35;;;;;;;4.54;77.63;101137.13;8892894;32;20665;-71
2021/01/09 12:39:37;;;;;;;12.82;7.53;;;;;;;4.67;77.73;101140.28;8873339;32;20149;-71
2021/01/09 12:44:40;;;;;;;16.90;8.70;;;;;;;5.11;77.63;101141.53;8906408;32;20161;-71
2021/01/09 12:49:43;;;;;;;16.75;8.70;;;;;;;5.08;76.68;101151.38;8907796;32;20155;-71
2021/01/09 12:54:45;;;;;;;16.75;8.20;;;;;;;4.89;77.05;101151.09;8870943;33;20200;-71
2021/01/09 12:59:47;;;;;;;14.57;7.50;;;;;;;4.89;78.09;101151.94;8870252;33;20154;-71
2021/01/09 13:04:51;;;;;;;16.23;7.85;;;;;;;4.39;77.16;101156.13;8867344;33;20151;-71
2021/01/09 13:09:53;;;;;;;17.33;8.15;;;;;;;4.66;77.95;101162.34;8870877;33;20173;-71
2021/01/09 13:14:56;;;;;;;19.85;9.98;;;;;;;4.55;78.67;101164.47;8871527;33;20421;-71
2021/01/09 13:20:01;;;;;;;18.55;8.93;;;;;;;4.49;78.24;101168.16;8754736;33;20160;-71
2021/01/09 13:25:05;;;;;;;18.63;8.80;;;;;;;4.35;78.33;101168.56;8714841;33;20194;-71
2021/01/09 13:30:10;;;;;;;18.48;8.65;;;;;;;4.37;78.83;101172.03;8709673;33;20551;-71
2021/01/09 13:35:14;;;;;;;17.77;9.55;;;;;;;4.19;78.96;101172.53;8733347;33;20467;-71
2021/01/09 13:40:16;;;;;;;20.58;8.55;;;;;;;4.51;77.90;101168.13;8715230;33;20267;-71
2021/01/09 13:45:19;;;;;;;19.17;7.50;;;;;;;4.59;77.80;101160.81;8715583;33;20425;-71
2021/01/09 13:50:22;;;;;;;16.08;8.40;;;;;;;4.29;77.94;101168.72;8700887;33;20194;-71
2021/01/09 13:55:25;;;;;;;23.03;8.50;;;;;;;4.10;78.46;101176.31;8713721;33;20462;-71
2021/01/09 14:00:27;;;;;;;21.60;8.75;;;;;;;4.24;78.64;101178.56;8718772;33;20480;-71
2021/01/09 14:05:31;;;;;;;17.70;8.45;;;;;;;4.04;78.87;101183.56;8714186;33;20188;-71
2021/01/09 14:10:35;;;;;;;18.73;9.10;;;;;;;3.92;78.89;101179.44;8713713;33;21136;-71
2021/01/09 14:15:38;;;;;;;22.37;9.10;;;;;;;3.84;79.19;101177.03;8713659;33;20162;-71
2021/01/09 14:20:41;;;;;;;20.98;8.82;;;;;;;3.96;79.43;101179.31;8716791;33;20178;-71
2021/01/09 14:25:44;;;;;;;17.00;8.20;;;;;;;3.95;79.45;101177.59;8709042;33;20436;-71
2021/01/09 14:30:47;;;;;;;20.50;8.60;;;;;;;3.75;79.26;101177.25;8704529;33;20224;-71
2021/01/09 14:35:51;;;;;;;11.50;7.03;;;;;;;3.67;78.99;101172.16;8713216;33;20187;-71
2021/01/09 14:40:54;;;;;;;16.50;8.33;;;;;;;3.84;79.21;101179.66;8712687;33;20218;-71
2021/01/09 14:45:57;;;;;;;19.73;8.87;;;;;;;3.78;78.96;101186.00;8712587;33;20672;-71
2021/01/09 14:51:01;;;;;;;20.50;10.23;;;;;;;3.94;79.00;101188.22;8713309;33;21262;-71
2021/01/09 14:56:08;;;;;;;19.93;9.60;;;;;;;3.97;78.95;101188.97;8713692;33;20145;-71
2021/01/09 15:01:10;;;;;;;27.83;10.47;;;;;;;3.78;79.53;101191.28;8716416;33;20209;-71
2021/01/09 15:06:14;;;;;;;23.27;10.37;;;;;;;3.79;79.51;101189.50;8726682;33;20184;-71
2021/01/09 15:11:17;;;;;;;22.27;10.40;;;;;;;3.94;79.73;101191.72;8739080;33;20192;-71
2021/01/09 15:16:19;;;;;;;26.27;11.83;;;;;;;3.82;79.79;101201.75;8728975;33;20166;-71
2021/01/09 15:21:24;;;;;;;21.70;10.20;;;;;;;3.86;79.91;101193.69;8727489;33;21178;-71
2021/01/09 15:26:26;;;;;;;23.53;11.13;;;;;;;3.77;80.05;101201.88;8776984;33;20222;-72
2021/01/09 15:31:28;;;;;;;28.30;11.67;;;;;;;3.82;79.91;101196.47;8733392;33;20204;-71
2021/01/09 15:36:34;;;;;;;27.42;12.02;;;;;;;3.74;80.18;101207.25;8737920;33;20428;-71
2021/01/09 15:41:37;;;;;;;22.00;9.97;;;;;;;3.73;80.14;101203.72;8719836;33;21328;-71
2021/01/09 15:46:41;;;;;;;24.80;11.77;;;;;;;3.78;79.97;101211.53;8723429;33;20188;-71
2021/01/09 15:51:44;;;;;;;22.37;10.97;;;;;;;3.92;80.27;101216.47;8734270;33;20590;-71
2021/01/09 15:56:48;;;;;;;27.20;11.80;;;;;;;3.84;80.45;101229.00;8716828;33;20551;-71
2021/01/09 16:01:51;;;;;;;21.73;9.97;;;;;;;3.88;80.64;101223.59;8723874;33;20183;-71
2021/01/09 16:06:58;;;;;;;24.00;10.47;;;;;;;4.00;80.65;101225.94;8712655;33;21506;-72
2021/01/09 16:12:00;;;;;;;22.87;10.43;;;;;;;3.96;80.75;101226.91;8713906;33;20179;-72
2021/01/09 16:17:02;;;;;;;25.70;11.00;;;;;;;3.98;80.60;101235.69;8743666;33;20250;-72
2021/01/09 16:22:05;;;;;;;27.30;11.20;;;;;;;3.88;80.50;101228.91;8775342;33;20278;-72
2021/01/09 16:27:09;;;;;;;28.43;13.50;;;;;;;3.81;80.72;101235.22;8776667;33;20143;-72
2021/01/09 16:32:15;;;;;;;35.40;21.43;;;;;;;3.56;81.06;101235.88;8776140;33;20132;-72
2021/01/09 16:37:26;;;;;;;29.57;16.83;;;;;;;3.78;81.05;101241.50;8776168;33;20183;-72
2021/01/09 16:42:29;;;;;;;26.97;11.77;;;;;;;3.73;81.03;101247.78;8775526;33;20494;-72
2021/01/09 16:47:31;;;;;;;30.27;15.63;;;;;;;3.78;81.17;101254.72;8775925;33;20238;-72
2021/01/09 16:52:40;;;;;;;30.57;15.77;;;;;;;3.85;81.01;101243.97;8775498;33;20183;-72
2021/01/09 16:57:51;;;;;;;27.37;13.57;;;;;;;3.68;80.95;101252.34;8730515;33;20483;-72
2021/01/09 17:02:53;;;;;;;33.40;17.73;;;;;;;3.70;80.74;101253.13;8705190;33;20176;-72
2021/01/09 17:07:58;;;;;;;32.63;17.53;;;;;;;3.83;80.92;101259.88;8714166;33;20136;-72
2021/01/09 17:13:01;;;;;;;29.50;14.63;;;;;;;3.93;81.04;101253.44;8715392;33;20274;-72
2021/01/09 17:18:04;;;;;;;23.90;12.27;;;;;;;3.81;80.71;101260.81;8715932;33;20282;-72
2021/01/09 17:23:07;;;;;;;21.40;13.50;;;;;;;3.84;79.95;101266.00;8658398;33;20614;-72
2021/01/09 17:28:09;;;;;;;19.53;10.93;;;;;;;3.90;80.23;101261.47;8630707;33;21719;-72
2021/01/09 17:33:13;;;;;;;24.88;15.98;;;;;;;4.00;80.11;101264.72;8627005;33;20188;-72
2021/01/09 17:38:17;;;;;;;21.03;9.20;;;;;;;4.04;79.87;101266.41;8629094;33;20148;-72
2021/01/09 17:43:19;;;;;;;13.17;6.67;;;;;;;3.98;80.50;101269.19;8645029;33;20186;-73
2021/01/09 17:48:41;;;;;;;24.07;11.00;;;;;;;3.87;80.09;101264.19;8718790;33;20782;-72
2021/01/09 17:53:45;;;;;;;20.87;8.80;;;;;;;3.94;80.44;101263.09;8715633;33;20128;-72
2021/01/09 17:58:47;;;;;;;22.67;9.83;;;;;;;4.16;81.29;101263.41;8725056;33;20722;-72
2021/01/09 18:03:52;;;;;;;23.13;9.20;;;;;;;4.14;80.51;101261.72;8715216;33;20721;-72
2021/01/09 18:08:56;;;;;;;20.33;9.60;;;;;;;4.04;81.57;101266.41;8714883;33;20183;-71
2021/01/09 18:14:00;;;;;;;17.33;8.57;;;;;;;4.03;81.69;101263.78;8713576;33;20644;-72
2021/01/09 18:19:05;;;;;;;22.47;9.60;;;;;;;4.05;82.29;101265.47;8716378;33;20148;-71
2021/01/09 18:24:16;;;;;;;18.97;9.30;;;;;;;4.14;82.52;101273.19;8712120;33;20270;-71
2021/01/09 18:29:18;;;;;;;21.83;9.77;;;;;;;4.22;82.60;101267.69;8721493;33;20315;-71
2021/01/09 18:34:21;;;;;;;23.73;9.77;;;;;;;4.26;82.54;101269.34;8709241;33;20642;-71
2021/01/09 18:39:27;;;;;;;22.23;10.87;;;;;;;4.30;82.64;101273.63;8713363;33;20267;-71
2021/01/09 18:44:36;;;;;;;26.20;10.17;;;;;;;4.26;82.61;101274.63;8734357;33;20143;-71
2021/01/09 18:49:40;;;;;;;23.73;9.70;;;;;;;4.09;82.41;101267.16;8714519;33;20486;-71
2021/01/09 18:54:49;;;;;;;23.73;9.47;;;;;;;4.18;82.73;101273.97;8709525;33;20186;-71
2021/01/09 18:59:53;;;;;;;26.67;10.27;;;;;;;4.20;83.00;101270.38;8717401;33;20158;-71
2021/01/09 19:04:55;;;;;;;23.17;9.63;;;;;;;4.22;83.15;101276.50;8717983;33;20258;-71
2021/01/09 19:10:02;;;;;;;33.60;15.53;;;;;;;4.27;82.88;101276.38;8719022;33;20183;-72
2021/01/09 19:15:19;;;;;;;24.90;10.63;;;;;;;4.20;83.09;101286.25;8719204;33;20198;-73
2021/01/09 19:20:30;;;;;;;23.47;10.80;;;;;;;4.28;83.01;101278.13;8740902;33;20990;-72
2021/01/09 19:25:34;;;;;;;36.10;16.17;;;;;;;4.35;83.26;101277.03;8717565;33;21704;-72
2021/01/09 19:30:37;;;;;;;26.73;11.73;;;;;;;4.34;82.83;101288.53;8718472;33;20183;-71
2021/01/09 19:35:42;;;;;;;24.83;11.97;;;;;;;4.24;83.04;101287.03;8717786;33;20202;-72
2021/01/09 19:40:48;;;;;;;22.70;10.57;;;;;;;4.29;83.07;101281.63;8711804;33;20189;-73
2021/01/09 19:45:58;;;;;;;35.90;13.90;;;;;;;4.33;83.05;101284.13;8710300;33;20639;-72
2021/01/09 19:51:10;;;;;;;25.20;11.90;;;;;;;4.34;83.15;101277.94;8712835;33;20187;-71
2021/01/09 19:56:20;;;;;;;27.20;11.73;;;;;;;4.33;82.89;101284.13;8752564;33;20158;-71
2021/01/09 20:01:26;;;;;;;32.47;13.93;;;;;;;4.39;82.93;101297.22;8768273;33;20175;-71
2021/01/09 20:06:30;;;;;;;31.37;12.47;;;;;;;4.40;82.95;101280.41;8776307;33;20197;-72
2021/01/09 20:11:49;;;;;;;30.33;15.53;;;;;;;4.41;83.13;101290.09;8775827;33;20186;-71
2021/01/09 20:17:02;;;;;;;50.00;22.50;;;;;;;4.46;83.20;101285.53;8746549;33;20238;-71
2021/01/09 20:22:23;;;;;;;34.77;15.43;;;;;;;4.46;83.13;101290.84;8717664;33;20183;-71
2021/01/09 20:27:31;;;;;;;36.05;14.93;;;;;;;4.41;83.01;101283.94;8692257;33;20143;-71
2021/01/09 20:32:38;;;;;;;39.93;16.83;;;;;;;4.37;82.83;101293.75;8689067;33;20513;-73
2021/01/09 20:37:42;;;;;;;36.63;14.67;;;;;;;4.35;83.16;101292.91;8634968;33;20448;-72
2021/01/09 20:42:47;;;;;;;36.23;15.70;;;;;;;4.31;83.07;101293.91;8659300;33;20220;-73
2021/01/09 20:47:49;;;;;;;39.33;15.13;;;;;;;4.33;83.10;101292.06;8717055;33;20654;-72
2021/01/09 20:52:52;;;;;;;30.60;13.03;;;;;;;4.34;83.20;101295.59;8718686;33;20723;-71
2021/01/09 20:58:02;;;;;;;27.57;12.87;;;;;;;4.31;83.09;101309.78;8712368;33;20182;-73
2021/01/09 21:03:05;;;;;;;25.43;10.97;;;;;;;4.29;83.33;101306.31;8715812;33;20140;-72
2021/01/09 21:08:07;;;;;;;23.73;10.60;;;;;;;4.32;83.33;101302.72;8711881;33;20182;-72
2021/01/09 21:13:11;;;;;;;31.30;15.33;;;;;;;4.35;83.06;101305.28;8715701;33;20164;-72
2021/01/09 21:18:13;;;;;;;29.02;12.95;;;;;;;4.33;83.07;101312.38;8711070;33;20689;-73
2021/01/09 21:23:16;;;;;;;32.60;14.23;;;;;;;4.34;83.15;101307.06;8715214;33;20591;-72
2021/01/09 21:28:22;;;;;;;35.77;13.67;;;;;;;4.31;82.97;101308.91;8716092;33;21462;-73
2021/01/09 21:33:25;;;;;;;39.13;16.15;;;;;;;4.31;83.36;101304.50;8723333;33;20179;-72
2021/01/09 21:38:28;;;;;;;33.53;15.90;;;;;;;4.32;83.34;101300.06;8719395;33;20513;-72
2021/01/09 21:43:31;;;;;;;44.23;17.23;;;;;;;4.38;83.25;101307.81;8735071;33;20209;-72
2021/01/09 21:48:33;;;;;;;49.57;17.17;;;;;;;4.38;83.18;101306.03;8774855;33;20189;-72
2021/01/09 21:53:37;;;;;;;39.40;17.17;;;;;;;4.43;83.54;101312.09;8726965;33;20942;-72
2021/01/09 21:58:40;;;;;;;43.03;17.27;;;;;;;4.49;83.43;101315.47;8715940;33;20185;-72
2021/01/09 22:03:42;;;;;;;46.30;20.48;;;;;;;4.48;83.29;101314.63;8713291;33;20274;-72
2021/01/09 22:08:45;;;;;;;48.03;20.58;;;;;;;4.48;83.40;101306.69;8715462;33;20529;-72
2021/01/09 22:13:54;;;;;;;41.93;18.97;;;;;;;4.47;83.31;101312.91;8714314;33;20183;-72
2021/01/09 22:18:56;;;;;;;47.55;19.92;;;;;;;4.51;83.46;101313.69;8714446;33;20747;-72
2021/01/09 22:23:59;;;;;;;43.30;17.95;;;;;;;4.51;83.68;101300.44;8714412;33;20500;-72
2021/01/09 22:29:03;;;;;;;51.30;20.13;;;;;;;4.57;83.42;101308.22;8714256;33;20152;-72
2021/01/09 22:34:05;;;;;;;52.10;21.60;;;;;;;4.57;83.21;101306.44;8714227;33;20182;-72
2021/01/09 22:39:08;;;;;;;47.67;20.38;;;;;;;4.59;83.24;101283.44;8688036;33;20229;-72
2021/01/09 22:44:11;;;;;;;50.30;21.02;;;;;;;4.56;83.07;101294.13;8682969;33;20222;-72
2021/01/09 22:49:19;;;;;;;51.33;21.00;;;;;;;4.58;83.29;101294.94;8704112;33;20224;-71
2021/01/09 22:54:22;;;;;;;43.90;19.40;;;;;;;4.54;83.05;101293.28;8723002;33;20453;-72
2021/01/09 22:59:28;;;;;;;43.20;17.00;;;;;;;4.48;83.29;101284.66;8720019;33;20271;-72
2021/01/09 23:04:30;;;;;;;50.27;20.63;;;;;;;4.43;83.34;101282.13;8718333;33;20874;-71
2021/01/09 23:09:32;;;;;;;47.30;21.52;;;;;;;4.44;83.30;101279.44;8714095;33;20176;-72
2021/01/09 23:14:36;;;;;;;42.47;17.37;;;;;;;4.36;83.37;101286.72;8714365;33;20697;-72
2021/01/09 23:19:38;;;;;;;46.10;18.13;;;;;;;4.27;83.05;101288.72;8713746;33;20276;-72
2021/01/09 23:24:41;;;;;;;43.03;18.25;;;;;;;4.23;82.93;101285.31;8714188;33;20210;-72
2021/01/09 23:29:45;;;;;;;50.50;18.67;;;;;;;4.22;82.97;101284.44;8717919;33;20744;-72
2021/01/09 23:34:48;;;;;;;41.55;18.90;;;;;;;4.26;82.98;101279.94;8719112;33;21728;-72
2021/01/09 23:39:51;;;;;;;54.50;20.55;;;;;;;4.27;83.01;101273.72;8718916;33;20518;-72
2021/01/09 23:44:54;;;;;;;45.23;18.67;;;;;;;4.22;83.15;101275.59;8719056;33;20239;-72
2021/01/09 23:49:56;;;;;;;45.70;19.92;;;;;;;4.23;82.86;101272.94;8718971;33;20214;-72